Time;durP1;ratioP1;P1;durP2;ratioP2;P2;SDS_P1;SDS_P2;PMS_P1;PMS_P2;Temp;Humidity;BMP_temperature;BMP_pressure;BME280_temperature;BME280_humidity;BME280_pressure;Samples;Min_cycle;Max_cycle;Signal;HPM_P1;HPM_P2
2023/06/20 00:00:53;;;;;;;10.40;8.75;;;;;;;-148.88;83.01;-17125.47;5033625;28;20031;-85
2023/06/20 00:03:19;;;;;;;10.18;8.60;;;;;;;-148.88;82.54;-17125.47;5015812;28;20035;-84
2023/06/20 00:05:44;;;;;;;9.20;8.10;;;;;;;-148.88;81.75;-17125.47;5015689;28;20399;-85
2023/06/20 00:08:10;;;;;;;10.15;8.70;;;;;;;-148.88;82.62;-17125.47;5015544;28;20025;-86
2023/06/20 00:10:35;;;;;;;10.25;8.98;;;;;;;-148.88;82.03;-17125.47;5033626;28;20029;-85
2023/06/20 00:13:01;;;;;;;10.73;9.50;;;;;;;-148.88;82.44;-17125.47;5033223;28;20029;-85
2023/06/20 00:15:27;;;;;;;10.70;9.20;;;;;;;-148.88;82.17;-17125.47;5032654;28;20026;-85
2023/06/20 00:17:53;;;;;;;10.13;8.48;;;;;;;-148.88;81.75;-17125.47;5015893;28;20078;-85
2023/06/20 00:20:19;;;;;;;11.38;8.73;;;;;;;-148.88;81.71;-17125.47;5033578;28;20033;-84
2023/06/20 00:22:44;;;;;;;11.27;8.73;;;;;;;-148.88;80.99;-17125.47;5033288;28;20025;-85
2023/06/20 00:25:10;;;;;;;9.93;8.82;;;;;;;-148.88;81.38;-17125.47;5033489;28;20033;-85
2023/06/20 00:27:35;;;;;;;11.52;9.13;;;;;;;-148.88;81.56;-17125.47;5033653;28;20029;-86
2023/06/20 00:30:01;;;;;;;10.82;8.13;;;;;;;-148.88;81.41;-17125.47;5033200;28;20519;-85
2023/06/20 00:32:26;;;;;;;9.23;8.30;;;;;;;-148.88;81.84;-17125.47;5033154;28;20048;-85
2023/06/20 00:34:51;;;;;;;9.98;8.95;;;;;;;-148.88;82.18;-17125.47;5033568;28;20096;-85
2023/06/20 00:37:17;;;;;;;11.02;8.20;;;;;;;-148.88;81.15;-17125.47;5033374;28;20152;-85
2023/06/20 00:39:42;;;;;;;9.50;8.50;;;;;;;-148.88;81.10;-17125.47;5033095;28;20079;-85
2023/06/20 00:42:25;;;;;;;10.57;7.82;;;;;;;-148.88;81.35;-17125.47;5033397;28;20125;-85
2023/06/20 00:44:51;;;;;;;10.38;8.50;;;;;;;-148.88;81.07;-17125.47;5033325;28;20032;-85
2023/06/20 00:47:18;;;;;;;9.35;8.30;;;;;;;-148.88;80.62;-17125.47;5015460;28;20101;-85
2023/06/20 00:49:49;;;;;;;10.10;8.40;;;;;;;-148.88;80.52;-17125.47;5015461;28;20113;-85
2023/06/20 00:52:25;;;;;;;10.65;8.20;;;;;;;-148.88;80.85;-17125.47;5033339;28;20049;-85
2023/06/20 00:54:50;;;;;;;9.27;8.20;;;;;;;-148.88;80.83;-17125.47;5015494;28;20037;-85
2023/06/20 00:57:19;;;;;;;9.20;7.53;;;;;;;-148.88;80.50;-17125.47;5015446;28;20026;-85
2023/06/20 00:59:45;;;;;;;8.75;7.85;;;;;;;-148.88;80.52;-17125.47;5015517;28;20033;-85
2023/06/20 01:02:11;;;;;;;11.40;8.27;;;;;;;-148.88;80.96;-17125.47;5015185;28;20163;-85
2023/06/20 01:04:41;;;;;;;10.00;8.02;;;;;;;-148.88;80.82;-17125.47;5032953;28;20075;-85
2023/06/20 01:07:28;;;;;;;10.25;8.27;;;;;;;-148.88;80.40;-17125.47;5015511;28;20021;-85
2023/06/20 01:10:16;;;;;;;8.95;8.05;;;;;;;-148.88;80.51;-17125.47;5032947;28;20022;-85
2023/06/20 01:12:44;;;;;;;11.48;8.63;;;;;;;-148.88;80.79;-17125.47;5032828;28;20026;-85
2023/06/20 01:15:26;;;;;;;10.43;8.45;;;;;;;-148.88;81.45;-17125.47;5015133;28;20025;-85
2023/06/20 01:17:56;;;;;;;10.32;8.75;;;;;;;-148.88;81.10;-17125.47;5015745;28;20414;-85
2023/06/20 01:20:27;;;;;;;10.50;8.18;;;;;;;-148.88;80.68;-17125.47;5032841;28;20031;-85
2023/06/20 01:23:03;;;;;;;10.50;9.15;;;;;;;-148.88;81.58;-17125.47;5032907;28;20392;-85
2023/06/20 01:25:40;;;;;;;9.02;8.13;;;;;;;-148.88;82.13;-17125.47;5014974;28;20025;-85
2023/06/20 01:28:16;;;;;;;10.40;8.63;;;;;;;-148.88;82.64;-17125.47;5017793;28;20411;-85
2023/06/20 01:30:54;;;;;;;11.70;8.05;;;;;;;-148.88;82.19;-17125.47;5019348;28;20498;-85
2023/06/20 01:33:27;;;;;;;9.82;8.60;;;;;;;-148.88;83.13;-17125.47;5018758;28;20037;-85
2023/06/20 01:35:55;;;;;;;9.67;8.67;;;;;;;-148.88;83.77;-17125.47;5019750;28;20025;-85
2023/06/20 01:38:25;;;;;;;11.68;9.68;;;;;;;-148.88;84.79;-17125.47;5036610;28;20079;-85
2023/06/20 01:40:51;;;;;;;9.68;8.63;;;;;;;-148.88;85.00;-17125.47;5018374;28;20027;-85
2023/06/20 01:43:19;;;;;;;13.23;9.60;;;;;;;-148.88;85.36;-17125.47;5035929;28;20028;-85
2023/06/20 01:45:49;;;;;;;11.75;9.50;;;;;;;-148.88;86.29;-17125.47;5036451;28;20029;-85
2023/06/20 01:48:16;;;;;;;11.98;9.75;;;;;;;-148.88;86.58;-17125.47;5035868;28;20022;-84
2023/06/20 01:50:43;;;;;;;12.00;10.55;;;;;;;-148.88;86.59;-17125.47;5036083;28;20017;-85
2023/06/20 01:53:10;;;;;;;14.98;10.07;;;;;;;-148.88;86.91;-17125.47;5035787;28;20477;-85
2023/06/20 01:55:37;;;;;;;11.63;9.80;;;;;;;-148.88;87.58;-17125.47;5036064;28;20135;-84
2023/06/20 01:58:04;;;;;;;11.90;10.68;;;;;;;-148.88;87.82;-17125.47;5018091;28;20099;-85
2023/06/20 02:00:31;;;;;;;11.77;10.38;;;;;;;-148.88;87.82;-17125.47;5035745;28;20384;-85
2023/06/20 02:02:59;;;;;;;11.18;9.98;;;;;;;-148.88;87.60;-17125.47;5035877;28;20093;-85
2023/06/20 02:05:27;;;;;;;12.20;10.55;;;;;;;-148.88;88.43;-17125.47;5035947;28;20025;-85
2023/06/20 02:07:55;;;;;;;12.02;10.57;;;;;;;-148.88;89.12;-17125.47;5035504;28;20033;-85
2023/06/20 02:10:22;;;;;;;13.57;10.90;;;;;;;-148.88;89.94;-17125.47;5018138;28;20091;-85
2023/06/20 02:12:50;;;;;;;12.10;10.30;;;;;;;-148.88;89.38;-17125.47;5017763;28;20053;-84
2023/06/20 02:15:17;;;;;;;13.90;11.23;;;;;;;-148.88;90.33;-17125.47;5018089;28;20488;-86
2023/06/20 02:17:44;;;;;;;11.95;10.73;;;;;;;-148.88;90.22;-17125.47;5035705;28;20032;-85
2023/06/20 02:20:13;;;;;;;12.70;11.25;;;;;;;-148.88;90.85;-17125.47;5035315;28;20025;-85
2023/06/20 02:22:43;;;;;;;15.68;11.85;;;;;;;-148.88;90.79;-17125.47;5035291;28;20044;-85
2023/06/20 02:25:12;;;;;;;13.63;11.52;;;;;;;-148.88;91.16;-17125.47;5035298;28;20117;-85
2023/06/20 02:27:39;;;;;;;13.95;11.25;;;;;;;-148.88;91.66;-17125.47;5017463;28;20022;-85
2023/06/20 02:30:09;;;;;;;12.98;11.48;;;;;;;-148.88;91.85;-17125.47;5017274;28;20030;-85
2023/06/20 02:32:36;;;;;;;12.48;11.18;;;;;;;-148.88;92.14;-17125.47;5017392;28;20112;-85
2023/06/20 02:35:06;;;;;;;12.93;11.18;;;;;;;-148.88;92.82;-17125.47;5017381;28;20480;-85
2023/06/20 02:37:34;;;;;;;13.35;11.60;;;;;;;-148.88;92.98;-17125.47;5017312;28;20026;-85
2023/06/20 02:39:59;;;;;;;13.65;11.52;;;;;;;-148.88;92.85;-17125.47;5016661;28;20021;-85
2023/06/20 02:42:24;;;;;;;14.52;12.07;;;;;;;-148.88;93.00;-17125.47;5017197;28;20021;-84
2023/06/20 02:44:50;;;;;;;13.15;11.75;;;;;;;-148.88;93.14;-17125.47;5035120;28;20053;-84
2023/06/20 02:48:02;;;;;;;12.98;11.60;;;;;;;-148.88;93.19;-17125.47;5034863;28;20396;-85
2023/06/20 02:50:44;;;;;;;13.93;11.75;;;;;;;-148.88;94.24;-17125.47;4996108;28;20039;-85
2023/06/20 02:53:28;;;;;;;14.30;11.98;;;;;;;-148.88;93.92;-17125.47;5035101;28;20100;-84
2023/06/20 02:55:59;;;;;;;;;;;;;;;-148.88;93.92;-17125.47;5017955;28;20021;-85
2023/06/20 02:58:27;;;;;;;14.52;13.00;;;;;;;-148.88;94.04;-17125.47;5035014;28;20356;-85
2023/06/20 03:00:53;;;;;;;13.55;11.38;;;;;;;-148.88;93.64;-17125.47;5034610;28;20032;-85
2023/06/20 03:03:24;;;;;;;13.43;11.98;;;;;;;-148.88;93.60;-17125.47;5034881;28;20021;-85
2023/06/20 03:05:56;;;;;;;15.98;12.07;;;;;;;-148.88;93.81;-17125.47;5034547;28;20064;-85
2023/06/20 03:08:24;;;;;;;13.68;12.27;;;;;;;-148.88;93.89;-17125.47;5017522;28;20025;-86
2023/06/20 03:10:50;;;;;;;15.00;12.23;;;;;;;-148.88;94.00;-17125.47;5034404;28;20152;-85
2023/06/20 03:13:16;;;;;;;13.40;11.88;;;;;;;-148.88;94.31;-17125.47;5016672;28;20025;-85
2023/06/20 03:15:41;;;;;;;14.82;13.32;;;;;;;-148.88;94.87;-17125.47;5016660;28;20116;-85
2023/06/20 03:18:11;;;;;;;15.55;12.93;;;;;;;-148.88;95.16;-17125.47;5034358;28;20103;-85
2023/06/20 03:20:37;;;;;;;16.27;13.15;;;;;;;-148.88;95.25;-17125.47;5034591;28;20028;-85
2023/06/20 03:23:02;;;;;;;14.88;13.30;;;;;;;-148.88;95.87;-17125.47;5016571;28;20030;-85
2023/06/20 03:25:27;;;;;;;14.02;12.63;;;;;;;-148.88;96.69;-17125.47;5016606;28;20122;-85
2023/06/20 03:27:53;;;;;;;13.63;12.32;;;;;;;-148.88;96.62;-17125.47;5034488;28;20040;-85
2023/06/20 03:30:19;;;;;;;14.27;12.82;;;;;;;-148.88;98.03;-17125.47;5016471;28;20510;-85
2023/06/20 03:32:44;;;;;;;14.98;12.93;;;;;;;-148.88;99.23;-17125.47;5034553;28;20476;-85
2023/06/20 03:35:09;;;;;;;14.55;13.10;;;;;;;-148.88;99.29;-17125.47;5034120;28;20182;-84
2023/06/20 03:37:35;;;;;;;14.15;12.73;;;;;;;-148.88;100.00;-17125.47;5034055;28;20037;-84
2023/06/20 03:40:00;;;;;;;14.05;12.45;;;;;;;-148.88;100.00;-17125.47;5016597;28;20468;-85
2023/06/20 03:42:26;;;;;;;12.95;11.65;;;;;;;-148.88;100.00;-17125.47;5016426;28;20017;-85
2023/06/20 03:44:51;;;;;;;15.73;13.48;;;;;;;-148.88;100.00;-17125.47;5016858;28;20018;-85
2023/06/20 03:47:17;;;;;;;15.23;13.63;;;;;;;-148.88;100.00;-17125.47;5034253;28;20433;-84
2023/06/20 03:49:42;;;;;;;15.85;14.35;;;;;;;-148.88;100.00;-17125.47;5034899;28;20384;-84
2023/06/20 03:52:07;;;;;;;16.10;14.30;;;;;;;-148.88;100.00;-17125.47;5036053;28;20025;-84
2023/06/20 03:54:34;;;;;;;15.93;14.25;;;;;;;-148.88;100.00;-17125.47;5034463;28;20452;-84
2023/06/20 03:57:01;;;;;;;15.98;14.35;;;;;;;-148.88;100.00;-17125.47;5034379;28;20032;-84
2023/06/20 03:59:26;;;;;;;16.45;14.63;;;;;;;-148.88;100.00;-17125.47;5016333;28;20381;-85
2023/06/20 04:01:52;;;;;;;16.33;14.73;;;;;;;-148.88;100.00;-17125.47;5033860;28;20015;-84
2023/06/20 04:04:18;;;;;;;20.77;14.32;;;;;;;-148.88;100.00;-17125.47;5016982;28;20132;-85
2023/06/20 04:06:49;;;;;;;16.40;13.40;;;;;;;-148.88;100.00;-17125.47;5034587;28;20479;-84
2023/06/20 04:09:14;;;;;;;15.90;14.27;;;;;;;-148.88;100.00;-17125.47;5033635;28;20029;-85
2023/06/20 04:11:40;;;;;;;15.57;13.98;;;;;;;-148.88;100.00;-17125.47;5034499;28;20030;-87
2023/06/20 04:14:05;;;;;;;15.88;14.13;;;;;;;-148.88;100.00;-17125.47;5035074;28;20071;-87
2023/06/20 04:16:30;;;;;;;18.08;15.50;;;;;;;-148.88;100.00;-17125.47;5033368;28;20025;-87
2023/06/20 04:18:56;;;;;;;21.15;17.55;;;;;;;-148.88;100.00;-17125.47;5016315;28;20029;-88
2023/06/20 04:21:21;;;;;;;24.10;17.90;;;;;;;-148.88;100.00;-17125.47;5033135;28;20387;-87
2023/06/20 04:23:46;;;;;;;18.55;16.65;;;;;;;-148.88;100.00;-17125.47;5033252;28;20021;-89
2023/06/20 04:26:12;;;;;;;21.45;18.23;;;;;;;-148.88;100.00;-17125.47;5033127;28;20021;-87
2023/06/20 04:28:37;;;;;;;24.58;19.27;;;;;;;-148.88;100.00;-17125.47;5032938;28;20491;-86
2023/06/20 04:31:03;;;;;;;22.45;19.88;;;;;;;-148.88;100.00;-17125.47;5033323;28;20104;-87
2023/06/20 04:33:28;;;;;;;20.55;18.38;;;;;;;-148.88;100.00;-17125.47;5015407;28;20021;-87
2023/06/20 04:35:57;;;;;;;21.58;18.35;;;;;;;-148.88;100.00;-17125.47;5033354;28;20025;-87
2023/06/20 04:38:22;;;;;;;21.25;18.70;;;;;;;-148.88;100.00;-17125.47;5032800;28;20439;-87
2023/06/20 04:40:47;;;;;;;23.80;20.95;;;;;;;-148.88;100.00;-17125.47;5015192;28;20053;-87
2023/06/20 04:43:13;;;;;;;26.00;21.17;;;;;;;-148.88;100.00;-17125.47;5033301;28;20476;-87
2023/06/20 04:45:38;;;;;;;23.98;20.45;;;;;;;-148.88;100.00;-17125.47;5033227;28;20017;-86
2023/06/20 04:48:04;;;;;;;24.85;22.15;;;;;;;-148.88;100.00;-17125.47;5033084;28;20021;-85
2023/06/20 04:50:30;;;;;;;26.08;22.48;;;;;;;-148.88;100.00;-17125.47;5033047;28;20021;-85
2023/06/20 04:52:55;;;;;;;31.02;22.70;;;;;;;-148.88;100.00;-17125.47;5032903;28;20026;-83
2023/06/20 04:55:21;;;;;;;28.67;24.05;;;;;;;-148.88;100.00;-17125.47;5032966;28;20398;-82
2023/06/20 04:57:47;;;;;;;33.33;25.35;;;;;;;-148.88;100.00;-17125.47;5015332;28;20395;-81
2023/06/20 05:00:14;;;;;;;25.10;22.30;;;;;;;-148.88;100.00;-17125.47;5032909;28;20395;-84
2023/06/20 05:02:44;;;;;;;24.88;22.17;;;;;;;-148.88;100.00;-17125.47;5017458;28;20052;-85
2023/06/20 05:05:10;;;;;;;28.83;25.20;;;;;;;-148.88;100.00;-17125.47;5037034;28;20479;-84
2023/06/20 05:07:36;;;;;;;33.10;25.95;;;;;;;-148.88;100.00;-17125.47;5036959;28;20048;-85
2023/06/20 05:10:02;;;;;;;30.42;24.88;;;;;;;-148.88;100.00;-17125.47;5036857;28;20037;-81
2023/06/20 05:12:28;;;;;;;27.42;23.20;;;;;;;-148.88;100.00;-17125.47;5021037;28;20029;-83
2023/06/20 05:14:53;;;;;;;25.33;22.48;;;;;;;-148.88;100.00;-17125.47;5020211;28;20071;-82
2023/06/20 05:17:18;;;;;;;25.55;22.73;;;;;;;-148.88;100.00;-17125.47;5021338;28;20086;-83
2023/06/20 05:19:43;;;;;;;29.00;23.90;;;;;;;-148.88;100.00;-17125.47;5037239;28;20040;-82
2023/06/20 05:22:09;;;;;;;26.38;23.48;;;;;;;-148.88;100.00;-17125.47;5019403;28;20017;-83
2023/06/20 05:24:34;;;;;;;28.13;24.10;;;;;;;-148.88;100.00;-17125.47;5037707;28;20053;-84
2023/06/20 05:26:59;;;;;;;26.77;23.42;;;;;;;-148.88;100.00;-17125.47;5036917;28;20021;-83
2023/06/20 05:29:25;;;;;;;26.50;22.73;;;;;;;-148.88;100.00;-17125.47;5037473;28;20041;-83
2023/06/20 05:31:50;;;;;;;26.30;22.60;;;;;;;-148.88;100.00;-17125.47;5037908;28;20025;-83
2023/06/20 05:34:16;;;;;;;26.13;23.25;;;;;;;-148.88;100.00;-17125.47;5037284;28;20025;-83
2023/06/20 05:36:41;;;;;;;26.50;23.00;;;;;;;-148.88;100.00;-17125.47;5036788;28;20440;-83
2023/06/20 05:39:08;;;;;;;24.05;21.63;;;;;;;-148.88;100.00;-17125.47;5019863;28;20399;-84
2023/06/20 05:41:34;;;;;;;27.05;22.40;;;;;;;-148.88;100.00;-17125.47;5019560;28;20025;-84
2023/06/20 05:44:00;;;;;;;25.30;22.67;;;;;;;-148.88;100.00;-17125.47;5019829;28;20032;-84
2023/06/20 05:46:25;;;;;;;24.42;21.92;;;;;;;-148.88;100.00;-17125.47;5037016;28;20057;-84
2023/06/20 05:48:50;;;;;;;24.27;21.67;;;;;;;-148.88;100.00;-17125.47;5037179;28;20539;-84
2023/06/20 05:51:16;;;;;;;24.63;22.00;;;;;;;-148.88;100.00;-17125.47;5036292;28;20401;-84
2023/06/20 05:53:42;;;;;;;25.30;22.55;;;;;;;-148.88;100.00;-17125.47;5018292;28;20032;-84
2023/06/20 05:56:08;;;;;;;28.27;23.52;;;;;;;-148.88;100.00;-17125.47;5020598;28;20030;-84
2023/06/20 05:58:33;;;;;;;24.85;22.25;;;;;;;-148.88;100.00;-17125.47;5036147;28;20032;-84
2023/06/20 06:00:59;;;;;;;26.60;23.70;;;;;;;-148.88;100.00;-17125.47;5018106;28;20022;-83
2023/06/20 06:03:24;;;;;;;25.63;23.02;;;;;;;-148.88;100.00;-17125.47;5018302;28;20029;-85
2023/06/20 06:05:49;;;;;;;25.98;23.17;;;;;;;-148.88;100.00;-17125.47;5036159;28;20495;-84
2023/06/20 06:08:16;;;;;;;25.95;23.15;;;;;;;-148.88;100.00;-17125.47;5037536;28;20032;-84
2023/06/20 06:10:41;;;;;;;26.23;23.38;;;;;;;-148.88;100.00;-17125.47;5018247;28;20026;-84
2023/06/20 06:13:07;;;;;;;26.23;22.52;;;;;;;-148.88;100.00;-17125.47;5017280;28;20054;-84
2023/06/20 06:15:32;;;;;;;24.90;22.33;;;;;;;-148.88;100.00;-17125.47;5036502;28;20032;-84
2023/06/20 06:17:58;;;;;;;25.98;23.27;;;;;;;-148.88;100.00;-17125.47;5018756;28;20072;-84
2023/06/20 06:20:24;;;;;;;25.33;22.60;;;;;;;-148.88;100.00;-17125.47;5035559;28;20361;-85
2023/06/20 06:22:50;;;;;;;26.35;23.67;;;;;;;-148.88;100.00;-17125.47;5035592;28;20387;-85
2023/06/20 06:25:15;;;;;;;26.75;23.92;;;;;;;-148.88;100.00;-17125.47;5036408;28;20502;-84
2023/06/20 06:27:41;;;;;;;25.40;22.80;;;;;;;-148.88;100.00;-17125.47;5037673;28;20102;-84
2023/06/20 06:30:08;;;;;;;25.60;22.75;;;;;;;-148.88;100.00;-17125.47;5037016;28;20488;-84
2023/06/20 06:32:34;;;;;;;25.13;22.20;;;;;;;-148.88;100.00;-17125.47;5019066;28;20120;-85
2023/06/20 06:35:00;;;;;;;25.33;21.38;;;;;;;-148.88;100.00;-17125.47;5018774;28;20021;-84
2023/06/20 06:37:30;;;;;;;23.98;21.48;;;;;;;-148.88;100.00;-17125.47;5019648;28;20120;-85
2023/06/20 06:39:56;;;;;;;22.95;20.63;;;;;;;-148.88;100.00;-17125.47;5017574;28;20510;-85
2023/06/20 06:42:23;;;;;;;24.30;21.67;;;;;;;-148.88;100.00;-17125.47;5035230;28;20026;-86
2023/06/20 06:44:48;;;;;;;25.63;21.70;;;;;;;-148.88;100.00;-17125.47;5035773;28;20478;-83
2023/06/20 06:47:14;;;;;;;24.80;22.20;;;;;;;-148.88;100.00;-17125.47;5035491;28;20028;-85
2023/06/20 06:49:39;;;;;;;22.80;20.40;;;;;;;-148.88;100.00;-17125.47;5017467;28;20029;-85
2023/06/20 06:52:05;;;;;;;23.83;21.45;;;;;;;-148.88;100.00;-17125.47;5034795;28;20053;-86
2023/06/20 06:54:30;;;;;;;23.40;21.00;;;;;;;-148.88;100.00;-17125.47;5034740;28;20059;-86
2023/06/20 06:56:56;;;;;;;24.45;21.85;;;;;;;-148.88;100.00;-17125.47;5034804;28;20022;-86
2023/06/20 06:59:21;;;;;;;24.10;21.52;;;;;;;-148.88;100.00;-17125.47;5034763;28;20399;-85
2023/06/20 07:01:46;;;;;;;25.25;22.75;;;;;;;-148.88;100.00;-17125.47;5034790;28;20518;-86
2023/06/20 07:04:14;;;;;;;25.42;22.52;;;;;;;-148.88;100.00;-17125.47;5034707;28;20033;-85
2023/06/20 07:06:39;;;;;;;24.95;22.17;;;;;;;-148.88;100.00;-17125.47;5035570;28;20025;-85
2023/06/20 07:09:05;;;;;;;25.65;22.95;;;;;;;-148.88;100.00;-17125.47;5034685;28;20432;-84
2023/06/20 07:11:30;;;;;;;26.20;23.40;;;;;;;-148.88;100.00;-17125.47;5034572;28;20026;-85
2023/06/20 07:13:55;;;;;;;24.95;22.55;;;;;;;-148.88;100.00;-17125.47;5034723;28;20024;-85
2023/06/20 07:16:21;;;;;;;24.88;22.13;;;;;;;-148.88;100.00;-17125.47;5034836;28;20033;-85
2023/06/20 07:18:46;;;;;;;26.42;22.13;;;;;;;-148.88;100.00;-17125.47;5034450;28;20025;-85
2023/06/20 07:21:11;;;;;;;25.60;22.90;;;;;;;-148.88;100.00;-17125.47;5034475;28;20491;-86
2023/06/20 07:23:37;;;;;;;26.15;23.33;;;;;;;-148.88;100.00;-17125.47;5034547;28;20017;-86
2023/06/20 07:26:03;;;;;;;26.88;24.10;;;;;;;-148.88;100.00;-17125.47;5033095;28;20480;-86
2023/06/20 07:28:29;;;;;;;26.08;23.20;;;;;;;-148.88;100.00;-17125.47;5014667;28;20026;-87
2023/06/20 07:30:54;;;;;;;26.10;23.30;;;;;;;-148.88;100.00;-17125.47;5030196;28;20048;-87
2023/06/20 07:33:20;;;;;;;27.27;24.38;;;;;;;-148.88;100.00;-17125.47;5033986;28;20072;-88
2023/06/20 07:35:46;;;;;;;26.50;23.70;;;;;;;-148.88;100.00;-17125.47;5034193;28;20390;-89
2023/06/20 07:38:11;;;;;;;28.10;25.17;;;;;;;-148.88;100.00;-17125.47;5034478;28;20444;-89
2023/06/20 07:40:37;;;;;;;27.42;24.52;;;;;;;-148.88;100.00;-17125.47;5033997;28;20029;-90
2023/06/20 07:43:02;;;;;;;27.23;24.33;;;;;;;-148.88;100.00;-17125.47;5033667;28;20438;-89
2023/06/20 07:45:28;;;;;;;26.73;24.00;;;;;;;-148.88;100.00;-17125.47;5034334;28;20053;-89
2023/06/20 07:47:53;;;;;;;29.27;24.55;;;;;;;-148.88;100.00;-17125.47;5033560;28;20026;-89
2023/06/20 07:50:19;;;;;;;26.27;23.48;;;;;;;-148.88;100.00;-17125.47;5033479;28;20018;-88
2023/06/20 07:52:44;;;;;;;28.35;25.25;;;;;;;-148.88;100.00;-17125.47;5033454;28;20480;-90
2023/06/20 07:55:10;;;;;;;28.05;25.05;;;;;;;-148.88;100.00;-17125.47;5033685;28;20391;-89
2023/06/20 07:57:35;;;;;;;33.40;25.65;;;;;;;-148.88;100.00;-17125.47;5032349;28;20029;-89
2023/06/20 08:00:01;;;;;;;27.05;24.17;;;;;;;-148.88;100.00;-17125.47;5033705;28;20025;-89
2023/06/20 08:02:31;;;;;;;26.38;23.63;;;;;;;-148.88;100.00;-17125.47;5034028;28;20072;-90
2023/06/20 08:04:56;;;;;;;26.42;23.73;;;;;;;-148.88;100.00;-17125.47;5018782;28;20029;-88
2023/06/20 08:07:22;;;;;;;27.00;24.25;;;;;;;-148.88;100.00;-17125.47;5035771;28;20112;-89
2023/06/20 08:09:47;;;;;;;26.38;23.67;;;;;;;-148.88;100.00;-17125.47;5033238;28;20090;-90
2023/06/20 08:12:12;;;;;;;26.75;23.45;;;;;;;-148.88;100.00;-17125.47;5033864;28;20049;-88
2023/06/20 08:14:38;;;;;;;25.58;22.83;;;;;;;-148.88;100.00;-17125.47;5040562;28;20030;-92
2023/06/20 08:17:04;;;;;;;25.45;22.77;;;;;;;-148.88;100.00;-17125.47;5043238;28;20033;-91
2023/06/20 08:19:29;;;;;;;23.92;21.42;;;;;;;-148.88;100.00;-17125.47;5034592;28;20055;-89
2023/06/20 08:21:54;;;;;;;23.80;21.33;;;;;;;-148.88;100.00;-17125.47;5034653;28;20075;-90
2023/06/20 08:24:20;;;;;;;24.67;22.08;;;;;;;-148.88;100.00;-17125.47;5035765;28;20479;-88
2023/06/20 08:26:45;;;;;;;25.25;22.17;;;;;;;-148.88;100.00;-17125.47;5034174;28;20496;-89
2023/06/20 08:29:11;;;;;;;26.67;22.48;;;;;;;-148.88;100.00;-17125.47;5033067;28;20029;-87
2023/06/20 08:31:36;;;;;;;25.27;22.65;;;;;;;-148.88;100.00;-17125.47;5032101;28;20025;-89
2023/06/20 08:34:05;;;;;;;26.60;23.85;;;;;;;-148.88;100.00;-17125.47;5033334;28;20061;-89
2023/06/20 08:36:32;;;;;;;26.95;22.77;;;;;;;-148.88;100.00;-17125.47;5032534;28;20029;-91
2023/06/20 08:38:59;;;;;;;26.17;22.38;;;;;;;-148.88;100.00;-17125.47;5033436;28;20037;-89
2023/06/20 08:41:28;;;;;;;24.85;22.35;;;;;;;-148.88;100.00;-17125.47;5015710;28;20033;-91
2023/06/20 08:43:54;;;;;;;25.65;22.90;;;;;;;-148.88;100.00;-17125.47;5033238;28;20166;-87
2023/06/20 08:46:20;;;;;;;25.45;22.95;;;;;;;-148.88;100.00;-17125.47;5032748;28;20387;-89
2023/06/20 08:48:46;;;;;;;25.80;23.00;;;;;;;-148.88;100.00;-17125.47;5032723;28;20033;-90
2023/06/20 08:51:16;;;;;;;26.10;23.40;;;;;;;-148.88;100.00;-17125.47;5032693;28;20048;-89
2023/06/20 08:53:46;;;;;;;26.20;23.50;;;;;;;-148.88;100.00;-17125.47;5032551;28;20022;-90
2023/06/20 08:56:14;;;;;;;26.10;23.42;;;;;;;-148.88;100.00;-17125.47;5032774;28;20029;-90
2023/06/20 08:58:39;;;;;;;29.83;23.92;;;;;;;-148.88;100.00;-17125.47;5032417;28;20029;-88
2023/06/20 09:01:07;;;;;;;26.13;23.38;;;;;;;-148.88;100.00;-17125.47;5032984;28;20032;-89
2023/06/20 09:03:35;;;;;;;24.45;21.58;;;;;;;-148.88;100.00;-17125.47;5032832;28;20021;-89
2023/06/20 09:06:01;;;;;;;24.45;21.92;;;;;;;-148.88;100.00;-17125.47;5032829;28;20032;-88
2023/06/20 09:08:39;;;;;;;25.38;22.48;;;;;;;-148.88;100.00;-17125.47;5033019;28;20029;-90
2023/06/20 09:11:08;;;;;;;26.13;22.70;;;;;;;-148.88;100.00;-17125.47;5033481;28;20029;-91
2023/06/20 09:13:34;;;;;;;24.65;22.10;;;;;;;-148.88;100.00;-17125.47;5033782;28;20021;-91
2023/06/20 09:16:11;;;;;;;27.38;23.13;;;;;;;-148.88;100.00;-17125.47;5033692;28;20396;-91
2023/06/20 09:18:40;;;;;;;23.42;21.02;;;;;;;-148.88;100.00;-17125.47;5032815;28;20049;-89
2023/06/20 09:21:06;;;;;;;24.45;22.05;;;;;;;-148.88;100.00;-17125.47;5032881;28;20438;-89
2023/06/20 09:23:33;;;;;;;23.02;20.63;;;;;;;-148.88;100.00;-17125.47;5032736;28;20025;-89
2023/06/20 09:26:17;;;;;;;23.52;21.00;;;;;;;-148.88;100.00;-17125.47;5032676;28;20032;-89
2023/06/20 09:28:44;;;;;;;21.85;19.75;;;;;;;-148.88;100.00;-17125.47;5032570;28;20064;-91
2023/06/20 09:31:09;;;;;;;22.02;19.83;;;;;;;-148.88;100.00;-17125.47;5035600;28;20403;-91
2023/06/20 09:33:39;;;;;;;21.30;19.10;;;;;;;-148.88;100.00;-17125.47;5033591;28;20032;-91
2023/06/20 09:36:15;;;;;;;21.25;19.05;;;;;;;-148.88;100.00;-17125.47;5033645;28;20029;-91
2023/06/20 09:38:44;;;;;;;22.08;19.90;;;;;;;-148.88;100.00;-17125.47;5032446;28;20056;-91
2023/06/20 09:41:15;;;;;;;20.33;18.33;;;;;;;-148.88;100.00;-17125.47;5017787;28;20403;-91
2023/06/20 09:43:40;;;;;;;19.27;17.38;;;;;;;-148.88;100.00;-17125.47;5038580;28;20032;-88
2023/06/20 09:46:06;;;;;;;18.55;16.83;;;;;;;-148.88;100.00;-17125.47;5037856;28;20030;-91
2023/06/20 09:48:33;;;;;;;19.35;17.50;;;;;;;-148.88;100.00;-17125.47;5019571;28;20021;-91
2023/06/20 09:51:01;;;;;;;17.70;15.95;;;;;;;-148.88;100.00;-17125.47;5036934;28;20068;-91
2023/06/20 09:53:33;;;;;;;17.80;16.20;;;;;;;-148.88;100.00;-17125.47;5036520;28;20530;-91
2023/06/20 09:56:01;;;;;;;18.70;15.75;;;;;;;-148.88;100.00;-17125.47;5036019;28;20420;-91
2023/06/20 09:58:29;;;;;;;17.83;15.95;;;;;;;-148.88;100.00;-17125.47;5036036;28;20033;-89
2023/06/20 10:00:55;;;;;;;17.23;15.52;;;;;;;-148.88;100.00;-17125.47;5018199;28;20437;-91
2023/06/20 10:03:22;;;;;;;17.58;15.68;;;;;;;-148.88;100.00;-17125.47;5037241;28;20047;-90
2023/06/20 10:05:47;;;;;;;16.90;14.88;;;;;;;-148.88;100.00;-17125.47;5019178;28;20032;-91
2023/06/20 10:08:16;;;;;;;15.95;14.45;;;;;;;-148.88;100.00;-17125.47;5036020;28;20057;-91
2023/06/20 10:10:41;;;;;;;16.00;14.48;;;;;;;-148.88;100.00;-17125.47;5035494;28;20025;-91
2023/06/20 10:13:07;;;;;;;15.68;14.25;;;;;;;-148.88;100.00;-17125.47;5035170;28;20059;-90
2023/06/20 10:15:32;;;;;;;16.35;14.75;;;;;;;-148.88;100.00;-17125.47;5035609;28;20519;-90
2023/06/20 10:17:58;;;;;;;17.15;15.38;;;;;;;-148.88;100.00;-17125.47;5035467;28;20393;-89
2023/06/20 10:20:33;;;;;;;16.80;15.20;;;;;;;-148.88;100.00;-17125.47;5035297;28;20037;-89
2023/06/20 10:23:04;;;;;;;15.75;14.05;;;;;;;-148.88;100.00;-17125.47;5035384;28;20053;-90
2023/06/20 10:25:31;;;;;;;16.33;14.70;;;;;;;-148.88;100.00;-17125.47;5017246;28;20025;-88
2023/06/20 10:28:01;;;;;;;17.88;14.43;;;;;;;-148.88;100.00;-17125.47;5017187;28;20387;-89
2023/06/20 10:30:46;;;;;;;16.38;14.77;;;;;;;-148.88;100.00;-17125.47;5035156;28;20033;-86
2023/06/20 10:33:12;;;;;;;14.75;13.35;;;;;;;-148.88;100.00;-17125.47;5035101;28;20485;-86
2023/06/20 10:35:56;;;;;;;15.55;14.13;;;;;;;-148.88;100.00;-17125.47;5035054;28;20029;-88
2023/06/20 10:38:22;;;;;;;15.05;13.55;;;;;;;-148.88;100.00;-17125.47;5035160;28;20026;-88
2023/06/20 10:40:48;;;;;;;14.95;13.55;;;;;;;-148.88;100.00;-17125.47;5017370;28;20104;-89
2023/06/20 10:43:18;;;;;;;17.27;12.65;;;;;;;-148.88;100.00;-17125.47;5035152;28;20448;-88
2023/06/20 10:45:57;;;;;;;14.82;13.32;;;;;;;-148.88;100.00;-17125.47;5016559;28;20052;-88
2023/06/20 10:48:26;;;;;;;13.52;11.90;;;;;;;-148.88;100.00;-17125.47;5034634;28;20034;-87
2023/06/20 10:51:01;;;;;;;12.90;11.60;;;;;;;-148.88;100.00;-17125.47;5034693;28;20457;-88
2023/06/20 10:53:29;;;;;;;12.40;11.35;;;;;;;-148.88;100.00;-17125.47;5034779;28;20528;-89